Time;durP1;ratioP1;P1;durP2;ratioP2;P2;SDS_P1;SDS_P2;PMS_P1;PMS_P2;Temp;Humidity;BMP_temperature;BMP_pressure;BME280_temperature;BME280_humidity;BME280_pressure;Samples;Min_cycle;Max_cycle;Signal;HPM_P1;HPM_P2
2021/01/30 00:01:41;;;;;;;6.57;4.85;;;;;;;3.32;77.70;91866.00;5051375;28;20537;-49
2021/01/30 00:04:07;;;;;;;8.15;4.25;;;;;;;3.36;77.69;91869.09;5051052;28;20021;-48
2021/01/30 00:06:32;;;;;;;11.10;5.82;;;;;;;3.31;78.20;91853.66;5051050;28;20481;-49
2021/01/30 00:08:58;;;;;;;13.23;5.30;;;;;;;3.33;77.97;91859.28;5051211;28;20032;-58
2021/01/30 00:11:24;;;;;;;10.63;3.92;;;;;;;3.35;77.60;91859.47;5051131;28;20029;-58
2021/01/30 00:13:49;;;;;;;8.23;4.28;;;;;;;3.36;76.91;91853.47;5050944;28;20449;-58
2021/01/30 00:16:15;;;;;;;6.63;3.95;;;;;;;2.94;78.20;91830.44;5051024;28;20025;-55
2021/01/30 00:18:40;;;;;;;10.02;4.35;;;;;;;3.09;78.43;91849.56;5051318;28;20036;-55
2021/01/30 00:21:06;;;;;;;9.38;4.38;;;;;;;3.17;78.42;91852.31;5051029;28;20033;-59
2021/01/30 00:23:31;;;;;;;14.38;6.35;;;;;;;3.20;78.49;91848.53;5051064;28;20124;-59
2021/01/30 00:25:57;;;;;;;14.85;6.32;;;;;;;3.25;78.24;91847.63;5051000;28;20017;-60
2021/01/30 00:28:22;;;;;;;9.80;6.45;;;;;;;3.22;78.27;91845.97;5049647;28;20478;-60
2021/01/30 00:30:48;;;;;;;17.25;7.30;;;;;;;3.23;78.22;91828.38;5050881;28;20031;-59
2021/01/30 00:33:13;;;;;;;13.13;7.10;;;;;;;3.06;78.31;91794.13;5050682;28;20405;-59
2021/01/30 00:35:38;;;;;;;10.30;5.13;;;;;;;3.15;78.08;91813.97;5050867;28;20029;-59
2021/01/30 00:38:05;;;;;;;11.23;6.05;;;;;;;3.22;78.39;91824.16;5050536;28;20028;-59
2021/01/30 00:40:30;;;;;;;11.65;7.53;;;;;;;3.28;78.50;91833.63;5050302;28;20064;-60
2021/01/30 00:42:56;;;;;;;16.77;8.88;;;;;;;3.34;78.52;91831.47;5050842;28;20021;-60
2021/01/30 00:45:24;;;;;;;21.63;8.70;;;;;;;3.43;77.80;91832.94;5050465;28;20055;-60
2021/01/30 00:47:50;;;;;;;13.57;7.27;;;;;;;3.35;78.04;91824.03;5050634;28;20033;-60
2021/01/30 00:50:17;;;;;;;16.38;8.27;;;;;;;3.21;77.78;91820.69;5050875;28;20052;-60
2021/01/30 00:52:43;;;;;;;11.68;6.43;;;;;;;2.92;78.96;91809.13;5050430;28;20473;-60
2021/01/30 00:55:10;;;;;;;12.10;7.38;;;;;;;2.74;79.65;91790.34;5050610;28;20029;-60
2021/01/30 00:57:35;;;;;;;13.15;7.05;;;;;;;2.91;78.76;91815.13;5050066;28;20033;-60
2021/01/30 01:00:01;;;;;;;15.07;8.15;;;;;;;2.73;80.28;91805.97;5050379;28;20036;-60
2021/01/30 01:02:27;;;;;;;16.90;8.18;;;;;;;2.66;79.97;91801.25;5050406;28;20033;-60
2021/01/30 01:04:52;;;;;;;14.18;7.88;;;;;;;2.75;80.29;91803.44;5050390;28;20021;-61
2021/01/30 01:07:18;;;;;;;12.63;7.90;;;;;;;2.59;80.93;91801.19;5050377;28;20415;-60
2021/01/30 01:09:43;;;;;;;17.10;8.88;;;;;;;2.46;81.68;91790.41;5050292;28;20040;-61
2021/01/30 01:12:09;;;;;;;13.73;8.05;;;;;;;2.47;81.79;91789.84;5050299;28;20077;-56
2021/01/30 01:14:35;;;;;;;13.55;6.97;;;;;;;2.46;81.53;91774.78;5050121;28;20029;-57
2021/01/30 01:17:00;;;;;;;13.88;6.85;;;;;;;2.42;82.23;91765.50;5050203;28;20037;-57
2021/01/30 01:19:26;;;;;;;13.65;7.65;;;;;;;2.32;82.32;91770.72;5050179;28;20104;-58
2021/01/30 01:21:52;;;;;;;15.13;7.13;;;;;;;2.18;82.38;91751.03;5048767;28;20474;-56
2021/01/30 01:24:18;;;;;;;13.75;8.05;;;;;;;2.35;82.11;91753.31;5050218;28;20042;-55
2021/01/30 01:26:46;;;;;;;15.43;8.52;;;;;;;2.39;82.14;91731.91;5050013;28;20549;-59
2021/01/30 01:29:13;;;;;;;13.48;7.13;;;;;;;2.56;81.61;91734.88;5050016;28;20051;-57
2021/01/30 01:31:38;;;;;;;14.73;7.97;;;;;;;2.50;81.14;91717.97;5050026;28;20037;-56
2021/01/30 01:34:04;;;;;;;14.75;6.80;;;;;;;2.67;81.31;91723.66;5049727;28;20105;-58
2021/01/30 01:36:29;;;;;;;13.95;7.47;;;;;;;2.40;81.15;91681.63;5049732;28;20029;-59
2021/01/30 01:38:55;;;;;;;13.93;7.78;;;;;;;2.65;81.50;91698.97;5049502;28;20032;-59
2021/01/30 01:41:20;;;;;;;9.85;6.78;;;;;;;2.76;80.87;91701.34;5049788;28;20501;-57
2021/01/30 01:43:45;;;;;;;16.70;8.52;;;;;;;2.68;81.07;91702.59;5049944;28;20133;-58
2021/01/30 01:46:11;;;;;;;13.25;6.50;;;;;;;2.70;80.95;91711.69;5049669;28;20070;-59
2021/01/30 01:48:57;;;;;;;9.73;6.80;;;;;;;2.49;81.83;91699.44;5049742;28;20505;-55
2021/01/30 01:51:41;;;;;;;11.73;6.45;;;;;;;2.55;81.79;91700.00;5048901;28;20536;-53
2021/01/30 01:54:14;;;;;;;7.72;5.60;;;;;;;2.54;81.88;91688.38;5048273;28;20037;-58
2021/01/30 01:56:41;;;;;;;7.68;4.93;;;;;;;2.66;81.70;91686.06;5048396;28;20524;-57
2021/01/30 01:59:10;;;;;;;7.47;4.82;;;;;;;2.61;81.65;91684.22;5048584;28;20029;-58
2021/01/30 02:01:36;;;;;;;9.55;5.43;;;;;;;2.54;83.06;91668.59;5047736;28;20063;-58
2021/01/30 02:04:06;;;;;;;7.95;4.15;;;;;;;2.72;82.41;91681.91;5048054;28;20059;-58
2021/01/30 02:06:34;;;;;;;8.70;4.15;;;;;;;2.65;83.13;91669.00;5048283;28;20025;-59
2021/01/30 02:09:00;;;;;;;7.13;4.47;;;;;;;2.67;83.57;91673.88;5049413;28;20033;-55
2021/01/30 02:11:25;;;;;;;7.50;4.50;;;;;;;2.53;84.00;91648.81;5049230;28;20734;-58
2021/01/30 02:13:53;;;;;;;5.75;4.13;;;;;;;2.52;84.42;91644.63;5049244;28;20421;-56
2021/01/30 02:16:18;;;;;;;8.27;4.47;;;;;;;2.56;84.22;91647.72;5049096;28;20032;-58
2021/01/30 02:19:06;;;;;;;5.10;3.38;;;;;;;2.65;84.05;91632.84;5049376;28;20442;-57
2021/01/30 02:21:49;;;;;;;4.65;3.25;;;;;;;2.61;83.87;91627.03;5049198;28;20429;-56
2021/01/30 02:24:55;;;;;;;5.38;3.85;;;;;;;2.64;84.12;91628.66;5049088;28;20506;-60
2021/01/30 02:27:29;;;;;;;5.97;3.30;;;;;;;2.62;83.93;91625.75;5049040;28;20556;-57
2021/01/30 02:30:07;;;;;;;4.57;3.10;;;;;;;2.65;84.04;91614.50;5049018;28;20119;-61
2021/01/30 02:32:54;;;;;;;8.15;3.97;;;;;;;2.64;84.01;91618.47;5049055;28;20028;-61
2021/01/30 02:35:28;;;;;;;8.98;4.93;;;;;;;2.63;83.74;91610.84;5048813;28;20029;-60
2021/01/30 02:38:00;;;;;;;10.98;5.60;;;;;;;2.67;83.98;91611.22;5047915;28;20094;-60
2021/01/30 02:40:28;;;;;;;11.18;6.40;;;;;;;2.74;83.98;91608.53;5047556;28;20053;-60
2021/01/30 02:43:06;;;;;;;10.65;5.95;;;;;;;2.61;83.12;91586.88;5047571;28;20029;-59
2021/01/30 02:45:38;;;;;;;7.18;4.78;;;;;;;2.77;83.31;91596.53;5047662;28;20032;-61
2021/01/30 02:48:05;;;;;;;6.70;4.28;;;;;;;2.81;83.08;91590.72;5047422;28;20485;-60
2021/01/30 02:50:39;;;;;;;8.05;5.45;;;;;;;2.79;82.96;91591.28;5047539;28;20036;-61
2021/01/30 02:53:05;;;;;;;9.65;5.40;;;;;;;2.75;82.71;91595.63;5047580;28;20454;-62
2021/01/30 02:55:32;;;;;;;7.35;4.90;;;;;;;2.78;82.16;91598.00;5047436;28;20068;-61
2021/01/30 02:57:57;;;;;;;7.15;4.95;;;;;;;2.78;82.73;91589.09;5048528;28;20033;-59
2021/01/30 03:00:25;;;;;;;5.05;4.45;;;;;;;2.66;82.92;91577.81;5047261;28;20029;-59
2021/01/30 03:02:51;;;;;;;6.68;3.97;;;;;;;2.69;83.29;91587.63;5047635;28;20477;-59
2021/01/30 03:05:17;;;;;;;16.52;3.90;;;;;;;2.68;82.78;91583.47;5046996;28;20032;-64
2021/01/30 03:08:07;;;;;;;8.65;4.63;;;;;;;2.69;82.91;91587.63;5047427;28;20568;-59
2021/01/30 03:10:45;;;;;;;7.70;4.95;;;;;;;2.73;82.84;91585.25;5048274;28;20033;-57
2021/01/30 03:13:15;;;;;;;11.57;4.57;;;;;;;2.71;83.12;91576.91;5047207;28;20036;-58
2021/01/30 03:16:13;;;;;;;6.80;4.63;;;;;;;2.69;82.73;91586.88;5047287;28;20096;-59
2021/01/30 03:18:45;;;;;;;8.38;5.15;;;;;;;2.78;82.90;91589.09;5047311;28;20137;-59
2021/01/30 03:21:13;;;;;;;6.00;4.65;;;;;;;2.69;82.17;91567.81;5047153;28;20105;-59
2021/01/30 03:23:39;;;;;;;11.33;6.80;;;;;;;2.52;82.58;91568.34;5047141;28;20457;-59
2021/01/30 03:26:09;;;;;;;9.15;5.00;;;;;;;2.71;83.22;91576.16;5048190;28;20021;-55
2021/01/30 03:28:34;;;;;;;10.85;5.82;;;;;;;2.71;82.58;91571.44;5048197;28;20021;-57
2021/01/30 03:31:00;;;;;;;10.68;6.40;;;;;;;2.84;82.64;91578.72;5048251;28;20047;-57
2021/01/30 03:33:26;;;;;;;8.80;5.78;;;;;;;2.66;82.47;91582.53;5048006;28;20037;-52
2021/01/30 03:35:51;;;;;;;7.88;5.25;;;;;;;2.69;82.13;91584.16;5047981;28;20069;-54
2021/01/30 03:38:16;;;;;;;8.57;6.07;;;;;;;2.75;81.84;91585.44;5048099;28;20021;-51
2021/01/30 03:40:43;;;;;;;13.93;6.55;;;;;;;2.53;82.70;91597.06;5047923;28;20057;-53
2021/01/30 03:43:09;;;;;;;11.30;6.15;;;;;;;2.83;82.78;91613.44;5048118;28;20021;-54
2021/01/30 03:45:35;;;;;;;11.60;7.53;;;;;;;2.94;81.86;91606.91;5048207;28;20025;-56
2021/01/30 03:48:00;;;;;;;8.90;6.25;;;;;;;2.98;81.55;91608.00;5047992;28;20017;-51
2021/01/30 03:50:26;;;;;;;9.18;5.60;;;;;;;2.83;81.88;91601.81;5047897;28;20029;-54
2021/01/30 03:52:52;;;;;;;8.30;5.53;;;;;;;2.73;82.32;91612.50;5047806;28;20037;-54
2021/01/30 03:55:20;;;;;;;8.35;5.18;;;;;;;2.88;81.98;91611.81;5047950;28;20036;-58
2021/01/30 03:57:46;;;;;;;10.50;5.95;;;;;;;2.67;82.60;91628.31;5047972;28;20061;-58
2021/01/30 04:00:17;;;;;;;7.95;5.97;;;;;;;2.89;81.70;91626.88;5047741;28;20394;-56
2021/01/30 04:02:42;;;;;;;7.68;5.43;;;;;;;2.88;82.08;91628.88;5048038;28;20036;-56
2021/01/30 04:05:09;;;;;;;16.90;10.50;;;;;;;3.02;81.88;91635.63;5047838;28;20417;-55
2021/01/30 04:07:35;;;;;;;28.58;15.75;;;;;;;3.06;81.27;91638.00;5047806;28;20025;-58
2021/01/30 04:10:01;;;;;;;10.48;7.03;;;;;;;3.03;81.35;91625.47;5047642;28;20513;-54
2021/01/30 04:12:27;;;;;;;11.57;7.22;;;;;;;2.72;82.40;91608.34;5047722;28;20058;-52
2021/01/30 04:14:52;;;;;;;65.25;41.80;;;;;;;2.75;82.64;91618.13;5048662;28;20025;-53
2021/01/30 04:17:18;;;;;;;23.25;13.45;;;;;;;2.83;82.52;91632.53;5050820;28;20081;-52
2021/01/30 04:19:43;;;;;;;18.35;10.88;;;;;;;2.59;81.59;91594.88;5051081;28;20060;-50
2021/01/30 04:22:08;;;;;;;12.73;7.57;;;;;;;2.82;82.63;91616.69;5050877;28;20119;-50
2021/01/30 04:24:34;;;;;;;7.35;5.40;;;;;;;2.98;81.43;91610.00;5051033;28;20053;-52
2021/01/30 04:26:59;;;;;;;8.75;5.95;;;;;;;3.05;81.22;91612.00;5051191;28;20029;-51
2021/01/30 04:29:25;;;;;;;9.63;6.90;;;;;;;2.97;80.85;91601.09;5050800;28;20025;-49
2021/01/30 04:31:55;;;;;;;8.05;5.75;;;;;;;3.10;80.58;91600.19;5050939;28;20029;-52
2021/01/30 04:34:20;;;;;;;11.63;6.75;;;;;;;2.82;81.15;91586.72;5050617;28;20029;-52
2021/01/30 04:36:46;;;;;;;8.45;6.10;;;;;;;2.96;80.84;91605.09;5050647;28;20512;-53
2021/01/30 04:39:11;;;;;;;7.90;5.47;;;;;;;2.78;81.23;91610.88;5050775;28;20509;-56
2021/01/30 04:41:48;;;;;;;13.60;8.05;;;;;;;2.79;82.04;91617.81;5050771;28;20017;-52
2021/01/30 04:44:29;;;;;;;14.80;9.60;;;;;;;2.69;82.23;91611.41;5049550;28;20036;-49
2021/01/30 04:47:02;;;;;;;9.77;6.43;;;;;;;2.74;82.14;91616.69;5050633;28;20515;-52
2021/01/30 04:49:47;;;;;;;8.20;4.95;;;;;;;2.69;81.93;91609.41;5049473;28;20044;-51
2021/01/30 04:52:18;;;;;;;8.38;4.65;;;;;;;2.75;81.84;91614.72;5050649;28;20120;-52
2021/01/30 04:55:06;;;;;;;6.43;5.03;;;;;;;2.66;82.26;91621.41;5050456;28;20029;-48
2021/01/30 04:57:45;;;;;;;9.07;5.97;;;;;;;2.85;81.68;91621.81;5050606;28;20078;-52
2021/01/30 05:00:29;;;;;;;7.65;5.65;;;;;;;2.82;81.36;91620.16;5049174;28;20493;-52
2021/01/30 05:03:15;;;;;;;8.55;4.68;;;;;;;2.73;81.31;91630.88;5050566;28;20068;-53
2021/01/30 05:05:43;;;;;;;7.72;4.75;;;;;;;2.64;82.27;91634.81;5049098;28;20512;-52
2021/01/30 05:08:15;;;;;;;18.98;8.68;;;;;;;2.54;82.33;91623.00;5049073;28;20033;-55
2021/01/30 05:10:56;;;;;;;16.40;8.52;;;;;;;2.76;81.54;91627.03;5049171;28;20041;-53
2021/01/30 05:13:28;;;;;;;16.67;8.60;;;;;;;2.51;81.93;91620.66;5048975;28;20104;-54
2021/01/30 05:16:19;;;;;;;60.05;22.83;;;;;;;2.62;82.62;91639.38;5049098;28;20029;-54
2021/01/30 05:18:52;;;;;;;25.30;13.55;;;;;;;2.69;81.70;91639.38;5044505;28;20109;-56
2021/01/30 05:21:23;;;;;;;40.75;17.23;;;;;;;2.86;81.21;91641.59;5049009;28;20470;-54
2021/01/30 05:23:51;;;;;;;32.97;15.60;;;;;;;2.93;80.24;91641.63;5048920;28;20028;-52
2021/01/30 05:26:25;;;;;;;22.33;12.85;;;;;;;2.84;80.47;91644.88;5049011;28;20050;-58
2021/01/30 05:29:09;;;;;;;28.45;15.15;;;;;;;2.91;80.43;91649.59;5050098;28;20122;-57
2021/01/30 05:31:47;;;;;;;20.08;10.98;;;;;;;3.02;79.90;91646.53;5049841;28;20075;-53
2021/01/30 05:34:35;;;;;;;19.30;11.10;;;;;;;2.85;79.39;91645.59;5049872;28;20111;-56
2021/01/30 05:37:04;;;;;;;21.63;12.13;;;;;;;2.97;79.49;91644.69;5049765;28;20044;-49
2021/01/30 05:39:43;;;;;;;24.33;12.88;;;;;;;2.66;79.46;91618.69;5048479;28;20076;-49
2021/01/30 05:42:30;;;;;;;31.85;17.10;;;;;;;2.54;80.65;91642.06;5049675;28;20112;-50
2021/01/30 05:45:03;;;;;;;25.67;12.75;;;;;;;2.67;80.28;91649.38;5049824;28;20036;-51
2021/01/30 05:47:30;;;;;;;22.77;13.68;;;;;;;2.48;80.72;91648.97;5049435;28;20497;-60
2021/01/30 05:50:02;;;;;;;14.50;9.15;;;;;;;2.34;81.49;91648.34;5048384;28;20107;-59
2021/01/30 05:52:31;;;;;;;40.05;17.77;;;;;;;2.10;82.00;91635.94;5049502;28;20028;-61
2021/01/30 05:54:57;;;;;;;16.98;10.77;;;;;;;2.27;82.09;91644.34;5049823;28;20044;-52
2021/01/30 05:57:23;;;;;;;29.45;12.50;;;;;;;2.44;81.02;91646.59;5049437;28;20080;-51
2021/01/30 05:59:52;;;;;;;18.75;8.57;;;;;;;2.54;81.22;91652.25;5049538;28;20025;-58
2021/01/30 06:02:26;;;;;;;12.40;7.22;;;;;;;2.62;80.56;91658.47;5048342;28;20029;-58
2021/01/30 06:04:51;;;;;;;9.38;6.78;;;;;;;2.75;80.35;91658.31;5049484;28;20405;-58
2021/01/30 06:07:28;;;;;;;10.73;6.28;;;;;;;2.61;80.21;91630.47;5049340;28;20036;-57
2021/01/30 06:09:54;;;;;;;13.32;5.88;;;;;;;2.66;79.76;91647.94;5048258;28;20029;-56
2021/01/30 06:12:32;;;;;;;15.48;8.25;;;;;;;2.69;79.55;91655.72;5048026;28;20021;-56
2021/01/30 06:15:27;;;;;;;11.57;7.03;;;;;;;2.69;80.84;91676.81;5049070;28;20025;-58
2021/01/30 06:17:53;;;;;;;13.13;8.43;;;;;;;2.80;80.14;91682.66;5048046;28;20040;-59
2021/01/30 06:20:25;;;;;;;18.00;10.18;;;;;;;2.51;80.54;91643.19;5049166;28;20029;-59
2021/01/30 06:23:02;;;;;;;13.68;9.10;;;;;;;2.82;80.53;91684.81;5049174;28;20024;-59
2021/01/30 06:25:39;;;;;;;17.83;10.52;;;;;;;2.82;80.75;91684.81;5049142;28;20068;-60
2021/01/30 06:28:08;;;;;;;11.98;7.55;;;;;;;2.79;80.50;91689.38;5049150;28;20127;-59
2021/01/30 06:30:42;;;;;;;2.92;2.13;;;;;;;2.82;80.66;91685.56;5048019;28;20089;-58
2021/01/30 06:33:27;;;;;;;2.28;1.73;;;;;;;2.89;80.47;91700.47;5047949;28;20086;-59
2021/01/30 06:36:06;;;;;;;2.83;2.08;;;;;;;3.00;80.41;91700.88;5044444;28;20030;-58
2021/01/30 06:38:37;;;;;;;4.10;2.13;;;;;;;3.08;80.00;91709.78;5044228;28;20077;-54
2021/01/30 06:41:04;;;;;;;48.00;19.30;;;;;;;3.03;79.93;91707.94;5028988;28;20057;-56
2021/01/30 06:43:44;;;;;;;10.13;5.47;;;;;;;3.05;79.84;91713.59;5028984;28;20501;-57
2021/01/30 06:46:17;;;;;;;3.50;1.95;;;;;;;3.01;80.37;91715.94;5044335;28;20029;-55
2021/01/30 06:48:53;;;;;;;4.97;1.85;;;;;;;3.04;80.11;91719.59;5029004;28;20085;-55
2021/01/30 06:51:36;;;;;;;2.42;1.67;;;;;;;2.99;80.57;91726.66;5028815;28;20029;-60
2021/01/30 06:54:24;;;;;;;2.03;1.17;;;;;;;2.92;79.89;91732.13;5027656;28;20478;-60
2021/01/30 06:56:54;;;;;;;2.67;2.00;;;;;;;2.95;80.07;91729.03;5028902;28;20054;-58
2021/01/30 06:59:25;;;;;;;1.75;0.95;;;;;;;2.83;79.73;91714.28;5032216;28;20036;-54
2021/01/30 07:01:51;;;;;;;1.83;1.35;;;;;;;2.72;80.32;91703.72;5048572;28;20437;-56
2021/01/30 07:04:33;;;;;;;3.45;1.60;;;;;;;2.95;79.68;91736.47;5039725;28;20021;-54
2021/01/30 07:07:22;;;;;;;7.68;3.00;;;;;;;2.78;79.72;91733.50;5037590;28;20512;-54
2021/01/30 07:10:27;;;;;;;7.47;4.18;;;;;;;2.87;80.12;91747.38;5037988;28;20025;-53
2021/01/30 07:13:08;;;;;;;2.97;1.83;;;;;;;2.92;79.38;91749.19;5037717;28;20098;-53
2021/01/30 07:15:39;;;;;;;17.15;8.65;;;;;;;2.99;79.54;91753.94;5038063;28;20029;-55
2021/01/30 07:18:28;;;;;;;6.28;4.28;;;;;;;3.13;79.27;91745.59;5037799;28;20024;-54
2021/01/30 07:21:15;;;;;;;7.35;3.60;;;;;;;3.14;79.50;91755.97;5037900;28;20049;-53
2021/01/30 07:24:04;;;;;;;4.13;2.47;;;;;;;3.18;79.11;91756.34;5035080;28;20029;-54
2021/01/30 07:26:51;;;;;;;2.75;2.08;;;;;;;3.18;79.06;91755.63;5041271;28;20119;-51
2021/01/30 07:29:38;;;;;;;1.58;1.48;;;;;;;3.34;78.54;91771.47;5030129;28;20383;-54
2021/01/30 07:32:15;;;;;;;4.60;1.90;;;;;;;3.30;78.74;91762.19;5031519;28;20030;-53
2021/01/30 07:34:56;;;;;;;1.55;1.45;;;;;;;3.59;78.56;91768.97;5031339;28;20040;-54
2021/01/30 07:37:43;;;;;;;1.38;0.70;;;;;;;3.74;77.75;91766.97;5042052;28;20026;-51
2021/01/30 07:40:16;;;;;;;2.13;1.50;;;;;;;3.63;77.80;91761.88;5030772;28;20060;-50
2021/01/30 07:42:49;;;;;;;9.95;2.30;;;;;;;3.80;77.47;91755.88;5030066;28;20489;-54
2021/01/30 07:45:17;;;;;;;1.63;1.45;;;;;;;3.98;76.91;91776.63;5031095;28;20509;-51
2021/01/30 07:47:48;;;;;;;2.65;1.58;;;;;;;4.10;76.15;91779.69;5031521;28;20031;-53
2021/01/30 07:50:28;;;;;;;2.28;1.80;;;;;;;4.17;76.03;91787.91;5032591;28;20025;-50
2021/01/30 07:52:59;;;;;;;6.97;5.13;;;;;;;4.33;76.42;91783.16;5045884;28;20036;-55
2021/01/30 07:55:24;;;;;;;5.72;3.35;;;;;;;4.42;75.65;91786.03;5046250;28;20399;-49
2021/01/30 07:58:16;;;;;;;4.53;3.13;;;;;;;4.52;75.38;91795.13;5045020;28;20123;-49
2021/01/30 08:00:54;;;;;;;5.60;2.92;;;;;;;4.51;75.46;91795.66;5038375;28;20086;-55
2021/01/30 08:03:41;;;;;;;4.85;3.33;;;;;;;4.51;74.25;91803.88;5040909;28;20051;-51
2021/01/30 08:06:09;;;;;;;8.38;5.07;;;;;;;4.54;74.17;91808.97;5041816;28;20032;-50
2021/01/30 08:09:01;;;;;;;6.40;4.45;;;;;;;4.64;74.27;91811.88;5036565;28;20034;-53
2021/01/30 08:11:31;;;;;;;6.38;4.47;;;;;;;4.70;73.71;91820.59;5044410;28;20526;-49
2021/01/30 08:14:45;;;;;;;7.47;4.50;;;;;;;4.58;73.70;91827.72;5048701;28;20025;-52
2021/01/30 08:17:33;;;;;;;5.30;4.10;;;;;;;4.46;73.42;91813.72;5008726;28;20099;-46
2021/01/30 08:20:09;;;;;;;14.50;7.43;;;;;;;4.28;73.42;91803.91;5033623;28;20027;-52
2021/01/30 08:22:44;;;;;;;10.70;6.13;;;;;;;4.30;73.98;91803.34;5042737;28;20417;-55
2021/01/30 08:25:13;;;;;;;21.10;12.00;;;;;;;4.31;74.79;91813.72;5042149;28;20017;-57
2021/01/30 08:27:42;;;;;;;13.35;8.43;;;;;;;4.53;74.42;91839.56;5039395;28;20108;-50
2021/01/30 08:30:14;;;;;;;9.20;5.43;;;;;;;4.63;74.14;91843.94;5030121;28;20406;-54
2021/01/30 08:32:59;;;;;;;19.75;11.45;;;;;;;4.45;73.68;91841.59;5029875;28;20506;-58
2021/01/30 08:35:25;;;;;;;16.27;9.35;;;;;;;4.35;73.69;91857.09;5033270;28;20483;-58
2021/01/30 08:37:58;;;;;;;13.65;8.35;;;;;;;4.31;73.78;91860.16;5038820;28;20043;-58
2021/01/30 08:40:46;;;;;;;9.18;5.95;;;;;;;4.34;74.11;91870.03;5029367;28;20067;-56
2021/01/30 08:43:47;;;;;;;42.05;23.80;;;;;;;3.95;75.08;91870.53;5029335;28;20029;-59
2021/01/30 08:46:34;;;;;;;22.23;13.55;;;;;;;3.85;75.98;91878.53;5040921;28;20025;-58
2021/01/30 08:49:12;;;;;;;24.88;13.52;;;;;;;3.81;76.23;91883.59;5041749;28;20642;-59
2021/01/30 08:51:38;;;;;;;26.00;13.88;;;;;;;4.15;75.18;91894.22;5037497;28;20064;-60
2021/01/30 08:54:31;;;;;;;12.73;7.55;;;;;;;4.15;75.00;91893.50;5035838;28;20521;-57
2021/01/30 08:56:57;;;;;;;5.40;3.85;;;;;;;3.99;75.39;91898.22;5036198;28;20057;-59
2021/01/30 08:59:48;;;;;;;3.05;2.70;;;;;;;4.01;75.61;91901.13;5029626;28;20064;-58
2021/01/30 09:02:29;;;;;;;8.98;6.40;;;;;;;4.10;75.91;91908.78;5028046;28;20129;-59
2021/01/30 09:05:09;;;;;;;12.55;7.30;;;;;;;3.95;74.72;91878.72;5029431;28;20417;-59
2021/01/30 09:07:48;;;;;;;16.58;11.23;;;;;;;4.11;75.04;91893.88;5029342;28;20494;-59
2021/01/30 09:10:33;;;;;;;11.90;8.02;;;;;;;4.13;75.26;91921.38;5029189;28;20028;-59
2021/01/30 09:13:14;;;;;;;10.77;8.15;;;;;;;4.18;74.84;91914.28;5029203;28;20479;-57
2021/01/30 09:15:42;;;;;;;8.13;5.55;;;;;;;4.17;74.63;91921.72;5032129;28;20413;-59
2021/01/30 09:18:46;;;;;;;10.32;6.10;;;;;;;4.14;74.48;91925.53;5048584;28;20041;-59
2021/01/30 09:21:14;;;;;;;13.23;7.05;;;;;;;4.26;74.20;91920.47;5046760;28;20043;-59
2021/01/30 09:24:10;;;;;;;18.58;8.30;;;;;;;4.20;74.02;91928.13;5047722;28;20028;-60
2021/01/30 09:26:39;;;;;;;19.70;8.77;;;;;;;4.22;74.76;91931.72;5041472;28;20040;-59
2021/01/30 09:29:05;;;;;;;11.60;6.72;;;;;;;4.22;74.64;91925.56;5040340;28;20050;-60
2021/01/30 09:31:31;;;;;;;9.52;6.75;;;;;;;4.22;74.47;91931.03;5037785;28;20095;-59
2021/01/30 09:34:16;;;;;;;16.10;9.30;;;;;;;4.17;74.81;91937.38;5039220;28;20029;-59
2021/01/30 09:36:44;;;;;;;11.45;7.28;;;;;;;4.19;75.36;91932.84;5037628;28;20517;-56
2021/01/30 09:39:33;;;;;;;6.53;4.88;;;;;;;4.21;75.25;91935.75;5034824;28;20499;-60
2021/01/30 09:42:15;;;;;;;15.88;12.07;;;;;;;4.03;76.04;91930.63;5029167;28;20117;-55
2021/01/30 09:44:41;;;;;;;13.60;8.93;;;;;;;4.06;75.95;91946.66;5041741;28;20044;-59
2021/01/30 09:47:13;;;;;;;13.75;8.88;;;;;;;3.89;76.50;91916.41;5047351;28;20470;-52
2021/01/30 09:49:48;;;;;;;15.35;9.38;;;;;;;3.82;77.21;91949.84;5047499;28;20029;-59
2021/01/30 09:52:18;;;;;;;10.45;5.97;;;;;;;3.70;77.83;91932.38;5047408;28;20081;-58
2021/01/30 09:54:44;;;;;;;15.35;8.57;;;;;;;3.91;77.36;91935.69;5047513;28;20033;-59
2021/01/30 09:57:22;;;;;;;15.95;9.32;;;;;;;3.93;77.23;91933.16;5047446;28;20421;-58
2021/01/30 10:00:02;;;;;;;13.52;9.60;;;;;;;3.97;77.71;91938.25;5039210;28;20040;-59
2021/01/30 10:02:29;;;;;;;9.60;5.80;;;;;;;4.00;77.13;91943.38;5039215;28;20583;-58
2021/01/30 10:05:11;;;;;;;11.23;5.30;;;;;;;3.96;77.06;91937.53;5038077;28;20037;-59
2021/01/30 10:07:37;;;;;;;15.00;7.88;;;;;;;3.96;77.33;91940.28;5049428;28;20089;-58
2021/01/30 10:10:28;;;;;;;21.15;11.73;;;;;;;4.01;76.67;91939.34;5047001;28;20493;-58
2021/01/30 10:12:55;;;;;;;11.52;7.07;;;;;;;4.11;76.98;91937.56;5037329;28;20581;-58
2021/01/30 10:15:32;;;;;;;7.13;5.68;;;;;;;3.97;76.76;91935.50;5038027;28;20025;-58
2021/01/30 10:18:11;;;;;;;8.82;6.00;;;;;;;3.75;77.15;91918.53;5040909;28;20029;-58
2021/01/30 10:20:48;;;;;;;8.18;6.72;;;;;;;3.64;78.14;91924.31;5041261;28;20029;-60
2021/01/30 10:23:26;;;;;;;7.82;5.40;;;;;;;3.84;77.40;91928.94;5044757;28;20040;-60
2021/01/30 10:26:13;;;;;;;6.97;5.30;;;;;;;3.89;77.78;91916.41;5042083;28;20040;-61
2021/01/30 10:28:59;;;;;;;7.38;4.57;;;;;;;3.91;77.13;91919.31;5040781;28;20397;-61
2021/01/30 10:31:40;;;;;;;11.98;6.43;;;;;;;3.80;78.17;91925.84;5029158;28;20037;-58
2021/01/30 10:34:17;;;;;;;8.77;5.18;;;;;;;4.00;78.20;91918.78;5032299;28;20056;-50
2021/01/30 10:36:51;;;;;;;14.57;8.05;;;;;;;4.38;76.91;91932.47;5034800;28;20029;-58
2021/01/30 10:39:16;;;;;;;13.90;6.57;;;;;;;4.68;76.09;91926.31;5034996;28;20061;-52
2021/01/30 10:41:42;;;;;;;13.88;7.93;;;;;;;4.77;76.06;91929.22;5046032;28;20402;-48
2021/01/30 10:44:10;;;;;;;7.18;5.20;;;;;;;4.82;75.52;91933.03;5045274;28;20036;-53
2021/01/30 10:46:40;;;;;;;5.63;4.28;;;;;;;4.88;75.04;91947.25;5041157;28;20026;-52
2021/01/30 10:49:26;;;;;;;7.93;5.40;;;;;;;4.67;75.50;91936.50;5026786;28;20455;-51
2021/01/30 10:52:12;;;;;;;7.80;5.65;;;;;;;4.81;75.37;91928.84;5026842;28;20037;-53
2021/01/30 10:54:40;;;;;;;8.10;5.85;;;;;;;5.10;74.74;91919.88;5026886;28;20490;-51
2021/01/30 10:57:23;;;;;;;11.88;6.45;;;;;;;5.46;75.19;91918.88;5047141;28;20028;-51
2021/01/30 10:59:56;;;;;;;7.15;5.45;;;;;;;6.12;70.71;91935.56;5048433;28;20517;-50
2021/01/30 11:02:44;;;;;;;7.97;4.47;;;;;;;6.43;70.32;91920.38;5040910;28;20037;-51
2021/01/30 11:05:32;;;;;;;10.65;6.15;;;;;;;6.53;69.70;91899.31;5034683;28;20522;-50
2021/01/30 11:08:01;;;;;;;10.13;5.72;;;;;;;6.51;69.70;91906.63;5038724;28;20068;-52
2021/01/30 11:10:36;;;;;;;10.70;7.15;;;;;;;6.43;70.28;91930.63;5032948;28;20410;-48
2021/01/30 11:13:24;;;;;;;11.30;7.82;;;;;;;6.52;69.82;91921.81;5026315;28;20045;-48
2021/01/30 11:15:50;;;;;;;7.67;5.13;;;;;;;6.62;69.88;91923.38;5041098;28;20539;-51
2021/01/30 11:18:18;;;;;;;7.97;5.80;;;;;;;6.84;68.64;91929.97;5046592;28;20052;-49
2021/01/30 11:20:47;;;;;;;14.95;9.57;;;;;;;7.37;67.82;91921.97;5046990;28;20067;-54
2021/01/30 11:23:32;;;;;;;8.90;5.82;;;;;;;8.70;65.80;91915.91;5033130;28;20040;-53
2021/01/30 11:25:58;;;;;;;14.50;9.77;;;;;;;9.45;62.33;91919.41;5043007;28;20072;-51
2021/01/30 11:28:35;;;;;;;10.68;6.57;;;;;;;10.85;58.69;91932.75;5038358;28;20052;-51
2021/01/30 11:31:00;;;;;;;7.50;5.82;;;;;;;10.91;55.85;91933.16;5038860;28;20052;-52
2021/01/30 11:33:27;;;;;;;7.15;5.35;;;;;;;9.63;58.01;91939.28;5047660;28;20021;-53
2021/01/30 11:35:53;;;;;;;10.90;6.95;;;;;;;9.09;59.33;91942.25;5032946;28;20569;-53
2021/01/30 11:38:22;;;;;;;8.75;6.00;;;;;;;8.95;60.73;91946.69;5030325;28;20034;-49
2021/01/30 11:40:51;;;;;;;8.53;5.50;;;;;;;8.48;61.50;91940.97;5031462;28;20101;-50
2021/01/30 11:43:16;;;;;;;;;;;;;;;8.32;63.03;91954.19;5031857;28;20025;-47
2021/01/30 11:45:42;;;;;;;8.45;5.65;;;;;;;8.80;62.15;91955.16;5031444;28;19916;-49
2021/01/30 11:48:07;;;;;;;8.68;5.88;;;;;;;8.51;61.22;91962.56;5031568;28;20033;-50
2021/01/30 11:50:33;;;;;;;11.25;7.40;;;;;;;8.05;62.73;91969.91;5031328;28;20030;-50
2021/01/30 11:53:26;;;;;;;7.53;5.50;;;;;;;7.74;64.97;91977.03;5031329;28;20037;-50
2021/01/30 11:55:51;;;;;;;13.75;6.43;;;;;;;8.36;64.09;91960.75;5031966;28;20045;-51
2021/01/30 11:58:18;;;;;;;9.38;5.53;;;;;;;8.47;63.25;91959.50;5031501;28;20034;-50
2021/01/30 12:00:43;;;;;;;7.15;5.40;;;;;;;8.02;63.72;91963.53;5031331;28;20053;-50
2021/01/30 12:03:29;;;;;;;7.25;5.50;;;;;;;7.98;64.36;91982.47;5036566;28;20569;-52
2021/01/30 12:05:56;;;;;;;5.28;4.25;;;;;;;8.19;64.06;91980.00;5045539;28;20044;-54